AirNav   Bose ProFlight Series 2 Headset
 
 1211 users online  

38KY St Elizabeth Healthcare-Grant County Heliport
Williamstown, Kentucky, USA

GOING TO WILLIAMSTOWN?


FAA INFORMATION EFFECTIVE 26 MARCH 2020

Location

FAA Identifier: 38KY
Lat/Long: 38-38-46.9800N 084-34-42.4900W
38-38.783000N 084-34.708167W
38.6463833,-84.5784694
(estimated)
Elevation: 956 ft. / 291 m (estimated)
Variation: 03W (1990)
From city: 2 miles SE of WILLIAMSTOWN, KY
Time zone: UTC -4 (UTC -5 during Standard Time)
Zip code: 41097

Heliport Operations

Heliport use: Private use. Permission required prior to landing
Activation date: 04/1993
Control tower: no
ARTCC: INDIANAPOLIS CENTER
FSS: LOUISVILLE FLIGHT SERVICE STATION
Attendance: UNATNDD
Segmented circle: no

Heliport Communications

WX AWOS-3 at K62 (9 nm E): 123.825 (859-654-1345)

Nearby radio navigation aids

VOR radial/distance  VOR name  Freq  Var
FLMr273/12.6FALMOUTH VOR/DME117.0004W
CVGr169/22.9CINCINNATI VORTAC117.3004W
FFTr032/(31.9)FRANKFORT VOR109.4003W

 
NDB name  Hdg/Dist  Freq  Var  ID
SPORTYS217/30.924504WPWF .--. .-- ..-.
CINCINNATI204/32.733504WLUK .-.. ..- -.-

Heliport Services

Runway Information

Helipad H1

Dimensions: 30 x 30 ft. / 9 x 9 m
Surface: concrete
Latitude: 38-38.783000N
Longitude: 084-34.708167W
Elevation: 956.0 ft.
Traffic pattern: leftleft

Heliport Ownership and Management from official FAA records

Ownership: Privately-owned
Owner: ST ELIZABETH HEALTHCARE-GRANT
238 BARNES ROAD
WILLIAMSTOWN, KY 41097
Phone 859-824-8105
Manager: MIKE KRAFT
1 MEDICAL VILLAGE
EDGEWOOD, KY 41017
Phone 859-301-2090

Additional Remarks

A52-H1 50 FT PLINES 100 FT N & TREES 200 FT S & E.
FOR CD CTC CINCINNATI APCH AT 859-372-6440

Instrument Procedures

There are no published instrument procedures at 38KY.

Some nearby airports with instrument procedures:

K62 - Gene Snyder Airport (9 nm E)
0I8 - Cynthiana-Harrison County Airport (22 nm SE)
KCVG - Cincinnati/Northern Kentucky International Airport (25 nm N)
27K - Georgetown-Scott County Regional Airport (26 nm S)
KLUK - Cincinnati Municipal Airport-Lunken Field (28 nm N)
 
Loc | Ops | Rwys | IFR | FBO | Links
Com | Nav | Svcs | Stats | Notes
Area around 38KY (St Elizabeth Healthcare-Grant County Heliport)
 
Road maps at: MapQuest Bing Google
 
Aerial photo
No photo
 
Sectional chart

 
Airport distance calculator
Flying to St Elizabeth Healthcare-Grant County Heliport? Find the distance to fly.

From to 38KY

Sunrise and sunset
Times for 30-Mar-2020
 Local
(UTC-4)
 Zulu
(UTC)
Morning civil twilight06:5910:59
Sunrise07:2611:26
Sunset19:5923:59
Evening civil twilight20:2600:26

Current date and time
Zulu (UTC)  30-Mar-2020 19:59:42
Local (UTC-4)  30-Mar-2020 15:59:42
 
METAR
KCVG 
25nm N 
301952Z 29016G27KT 10SM FEW035 BKN250 16/M01 A3009 RMK AO2 PK WND 28027/1914 SLP187 T01611006
K27K 
26nm S 
301955Z AUTO 24013G20KT 10SM CLR 16/01 A3010 RMK AO1
KLUK 
28nm N 
301953Z 26019G23KT 10SM CLR 16/01 A3010 RMK AO2 PK WND 27028/1929 SLP191 T01610006
KI69 
31nm NE 
301935Z AUTO 28017G24KT 10SM CLR 15/00 A3010 RMK AO2 T01490004
KFFT 
32nm SW 
301953Z AUTO 30013G18KT 10SM CLR 18/M01 A3010 RMK AO2 SLP188 T01831006
KLEX 
37nm S 
301954Z 26011G21KT 10SM CLR 17/01 A3011 RMK AO2 SLP194 T01670006
KI67 
38nm N 
301935Z AUTO 31016G24KT 10SM CLR 15/00 A3010 RMK AO1
KFGX 
40nm E 
301935Z AUTO 30014G22KT 10SM CLR 16/M01 A3009 RMK AO2 T01571006
KIMS 
42nm W 
301935Z AUTO 26010G20KT 10SM CLR 16/00 A3013 RMK AO1
KHAO 
43nm N 
301953Z AUTO 29019G25KT 10SM CLR 16/01 A3010 RMK AO2 PK WND 30028/1940 SLP192 T01560011
TAF
KCVG 
25nm N 
301733Z 3018/3124 29018G28KT P6SM FEW050 SCT250 FM302200 30014G22KT P6SM SCT060 FM310000 32008KT P6SM SCT060 FM310200 35006KT P6SM SCT060 FM311200 03004KT P6SM BKN045 FM311500 04005KT P6SM OVC025 FM311900 01005KT P6SM OVC035
KLUK 
28nm N 
301733Z 3018/3118 29016G26KT P6SM FEW050 SCT250 FM302200 30012G20KT P6SM SCT060 FM310000 32006KT P6SM SCT060 FM310200 35004KT P6SM SCT060 FM311200 03004KT P6SM BKN045 FM311500 04005KT P6SM OVC028
NOTAMs
Click for the latest NOTAMs
NOTAMs are issued by the DoD/FAA and will open in a separate window not controlled by AirNav.

 

 
 

Would you like to see your business listed on this page?

 If your business provides an interesting product or service to pilots, flight crews, aircraft, or users of the St Elizabeth Healthcare-Grant County Heliport, you should consider listing it here.  To start the listing process, click on the button below
 
Add a business
 

Other Pages about St Elizabeth Healthcare-Grant County Heliport

Update a link
 
Copyright © AirNav, LLC. All rights reserved. Privacy Policy  Contact